Time;durP1;ratioP1;P1;durP2;ratioP2;P2;SDS_P1;SDS_P2;PMS_P1;PMS_P2;Temp;Humidity;BMP_temperature;BMP_pressure;BME280_temperature;BME280_humidity;BME280_pressure;Samples;Min_cycle;Max_cycle;Signal;HPM_P1;HPM_P2
2022/12/04 00:00:54;;;;;;;38.55;20.55;;;0.40;99.90;;;;;;6297778;22;20023;-84
2022/12/04 00:03:20;;;;;;;32.97;19.10;;;1.50;99.90;;;;;;6298106;22;20019;-84
2022/12/04 00:05:45;;;;;;;36.45;19.55;;;1.70;99.90;;;;;;6298408;22;20019;-84
2022/12/04 00:08:11;;;;;;;38.88;19.15;;;1.40;99.90;;;;;;6298378;22;20022;-84
2022/12/04 00:10:42;;;;;;;35.97;20.88;;;1.60;99.90;;;;;;6299435;22;20019;-84
2022/12/04 00:13:08;;;;;;;35.15;20.20;;;0.40;99.90;;;;;;6297464;22;20162;-85
2022/12/04 00:15:33;;;;;;;34.90;19.40;;;-0.10;99.90;;;;;;6299544;22;20069;-84
2022/12/04 00:17:59;;;;;;;38.42;20.27;;;0.40;99.90;;;;;;6297185;22;20019;-84
2022/12/04 00:20:25;;;;;;;41.42;19.60;;;0.40;99.90;;;;;;6298587;22;20019;-84
2022/12/04 00:22:51;;;;;;;41.38;20.70;;;0.80;99.90;;;;;;6298898;22;20370;-84
2022/12/04 00:25:17;;;;;;;35.83;19.88;;;0.50;99.90;;;;;;6298967;22;20034;-84
2022/12/04 00:27:43;;;;;;;38.05;20.33;;;0.60;99.90;;;;;;6298336;22;20289;-84
2022/12/04 00:30:09;;;;;;;41.35;21.77;;;0.80;99.90;;;;;;6299245;22;20030;-85
2022/12/04 00:32:35;;;;;;;38.83;21.40;;;0.40;99.90;;;;;;6300161;22;20447;-84
2022/12/04 00:35:00;;;;;;;40.83;20.80;;;0.70;99.90;;;;;;6298930;22;20051;-84
2022/12/04 00:37:27;;;;;;;41.00;21.88;;;0.40;99.90;;;;;;6300786;22;20020;-83
2022/12/04 00:39:52;;;;;;;40.45;21.00;;;0.50;99.90;;;;;;6300908;22;20051;-84
2022/12/04 00:42:18;;;;;;;37.17;20.52;;;0.30;99.90;;;;;;6301008;22;20297;-84
2022/12/04 00:44:44;;;;;;;38.20;21.27;;;0.30;99.90;;;;;;6300786;22;20027;-84
2022/12/04 00:47:10;;;;;;;39.53;20.83;;;1.20;99.90;;;;;;6274062;22;20090;-84
2022/12/04 00:49:35;;;;;;;44.65;22.23;;;1.10;99.90;;;;;;6299986;22;20019;-84
2022/12/04 00:52:01;;;;;;;43.20;22.05;;;0.20;99.90;;;;;;6274616;22;20050;-84
2022/12/04 00:54:27;;;;;;;38.25;20.60;;;1.10;99.90;;;;;;6300840;22;20035;-85
2022/12/04 00:56:52;;;;;;;39.17;21.98;;;0.10;99.90;;;;;;6273599;22;20015;-84
2022/12/04 00:59:18;;;;;;;45.58;22.58;;;0.10;99.90;;;;;;6300355;22;20011;-84
2022/12/04 01:01:44;;;;;;;40.63;22.27;;;0.90;99.90;;;;;;6300013;22;20103;-84
2022/12/04 01:04:09;;;;;;;44.58;22.83;;;0.00;99.90;;;;;;6299018;22;20339;-84
2022/12/04 01:06:35;;;;;;;46.40;23.45;;;1.00;99.90;;;;;;6274652;22;20054;-84
2022/12/04 01:09:03;;;;;;;42.17;22.67;;;0.10;99.90;;;;;;6299621;22;20026;-84
2022/12/04 01:11:30;;;;;;;45.83;22.65;;;0.40;99.90;;;;;;6299814;22;20030;-84
2022/12/04 01:13:57;;;;;;;49.95;24.23;;;-0.20;99.90;;;;;;6300096;22;20019;-84
2022/12/04 01:16:29;;;;;;;45.42;25.30;;;-0.20;99.90;;;;;;6299784;22;20015;-84
2022/12/04 01:18:55;;;;;;;50.00;26.45;;;0.40;99.90;;;;;;6325155;22;20431;-84
2022/12/04 01:21:22;;;;;;;48.03;24.83;;;-0.50;99.90;;;;;;6300046;22;20089;-84
2022/12/04 01:23:48;;;;;;;50.92;24.63;;;-0.40;99.90;;;;;;6298829;22;20023;-84
2022/12/04 01:26:14;;;;;;;46.28;24.40;;;-0.10;99.90;;;;;;6302086;22;20317;-84
2022/12/04 01:28:40;;;;;;;43.45;23.55;;;0.80;99.90;;;;;;6300200;22;20103;-84
2022/12/04 01:31:09;;;;;;;47.40;23.48;;;0.90;99.90;;;;;;6298725;22;20015;-84
2022/12/04 01:33:36;;;;;;;46.05;24.35;;;0.30;99.90;;;;;;6324969;22;20034;-84
2022/12/04 01:36:04;;;;;;;45.05;24.17;;;-0.30;99.90;;;;;;6299381;22;20022;-84
2022/12/04 01:38:29;;;;;;;46.13;24.98;;;-0.30;99.90;;;;;;6298849;22;20481;-84
2022/12/04 01:40:56;;;;;;;47.67;24.15;;;1.00;99.90;;;;;;6300016;22;20050;-85
2022/12/04 01:43:22;;;;;;;45.75;24.73;;;-0.20;99.90;;;;;;6300241;22;20022;-85
2022/12/04 01:45:50;;;;;;;47.35;23.58;;;-0.20;99.90;;;;;;6298781;22;20019;-84
2022/12/04 01:48:25;;;;;;;47.05;25.20;;;-0.40;99.90;;;;;;6298995;22;20041;-84
2022/12/04 01:50:55;;;;;;;49.28;24.10;;;-0.20;99.90;;;;;;6299923;22;20093;-84
2022/12/04 01:53:21;;;;;;;45.38;23.85;;;0.40;99.90;;;;;;6298298;22;20022;-84
2022/12/04 01:55:47;;;;;;;48.78;25.45;;;0.30;99.90;;;;;;6300199;22;20012;-84
2022/12/04 01:58:15;;;;;;;48.33;23.45;;;0.20;99.90;;;;;;6273717;22;20019;-84
2022/12/04 02:00:41;;;;;;;42.72;24.05;;;-0.10;99.90;;;;;;6299271;22;20505;-84
2022/12/04 02:03:07;;;;;;;46.25;24.48;;;0.30;99.90;;;;;;6298438;22;20026;-84
2022/12/04 02:05:33;;;;;;;48.83;24.42;;;0.30;99.90;;;;;;6298571;22;20023;-84
2022/12/04 02:08:03;;;;;;;49.83;23.77;;;-0.10;99.90;;;;;;6299336;22;20015;-84
2022/12/04 02:10:42;;;;;;;48.50;25.35;;;0.60;99.90;;;;;;6299686;22;20019;-84
2022/12/04 02:13:15;;;;;;;49.90;26.63;;;1.00;99.90;;;;;;6298110;22;20508;-84
2022/12/04 02:15:51;;;;;;;46.35;25.20;;;0.00;99.90;;;;;;6274493;22;20015;-84
2022/12/04 02:18:27;;;;;;;52.33;25.17;;;0.00;99.90;;;;;;6272535;22;20643;-84
2022/12/04 02:20:54;;;;;;;49.05;25.45;;;0.70;99.90;;;;;;6272675;22;20027;-84
2022/12/04 02:23:27;;;;;;;45.67;24.98;;;0.70;99.90;;;;;;6299584;22;20027;-85
2022/12/04 02:25:59;;;;;;;44.05;24.70;;;-0.10;99.90;;;;;;6324990;22;20052;-84
2022/12/04 02:28:35;;;;;;;49.05;25.40;;;1.20;99.90;;;;;;6298759;22;20011;-84
2022/12/04 02:31:02;;;;;;;47.47;24.15;;;0.50;99.90;;;;;;6299128;22;20023;-84
2022/12/04 02:33:37;;;;;;;50.20;27.10;;;0.10;99.90;;;;;;6297802;22;20015;-84
2022/12/04 02:36:11;;;;;;;49.38;27.13;;;1.40;99.90;;;;;;6299323;22;20066;-84
2022/12/04 02:38:43;;;;;;;48.47;27.85;;;0.00;99.90;;;;;;6301364;22;20365;-84
2022/12/04 02:41:12;;;;;;;54.17;28.52;;;-0.10;99.90;;;;;;6298323;22;20017;-84
2022/12/04 02:43:41;;;;;;;48.40;27.35;;;-0.10;99.90;;;;;;6273716;22;20023;-84
2022/12/04 02:46:13;;;;;;;52.08;28.52;;;-0.20;99.90;;;;;;6272921;22;20058;-84
2022/12/04 02:48:41;;;;;;;51.38;28.67;;;0.10;99.90;;;;;;6297650;22;20034;-84
2022/12/04 02:51:12;;;;;;;57.28;29.23;;;0.90;99.90;;;;;;6298748;22;20019;-84
2022/12/04 02:53:43;;;;;;;55.17;29.85;;;-0.30;99.90;;;;;;6299324;22;20025;-84
2022/12/04 02:56:13;;;;;;;55.05;29.45;;;-0.10;99.90;;;;;;6324664;22;20038;-84
2022/12/04 02:58:48;;;;;;;52.20;29.88;;;0.00;99.90;;;;;;6299190;22;20429;-84
2022/12/04 03:01:18;;;;;;;57.75;30.05;;;-0.10;99.90;;;;;;6299207;22;20019;-85
2022/12/04 03:03:55;;;;;;;56.47;30.00;;;1.10;99.90;;;;;;6297154;22;20017;-85
2022/12/04 03:06:22;;;;;;;53.60;30.92;;;-0.10;99.90;;;;;;6298730;22;20412;-84
2022/12/04 03:09:00;;;;;;;57.08;30.20;;;-0.20;99.90;;;;;;6297927;22;20007;-84
2022/12/04 03:11:30;;;;;;;58.88;31.77;;;1.80;99.90;;;;;;6325483;22;20353;-84
2022/12/04 03:14:04;;;;;;;57.08;31.40;;;0.50;99.90;;;;;;6299033;22;20015;-83
2022/12/04 03:16:34;;;;;;;57.72;31.08;;;-0.10;99.90;;;;;;6298676;22;20019;-84
2022/12/04 03:19:06;;;;;;;59.33;32.50;;;0.70;99.90;;;;;;6297166;22;20019;-84
2022/12/04 03:21:37;;;;;;;57.10;31.90;;;-0.60;99.90;;;;;;6273535;22;20461;-85
2022/12/04 03:24:12;;;;;;;61.92;33.08;;;-0.10;99.90;;;;;;6297705;22;20019;-84
2022/12/04 03:26:46;;;;;;;56.53;31.33;;;-0.10;99.90;;;;;;6273015;22;20054;-84
2022/12/04 03:29:20;;;;;;;62.97;33.38;;;-0.10;99.90;;;;;;6273047;22;20332;-84
2022/12/04 03:31:56;;;;;;;61.80;34.00;;;-0.20;99.90;;;;;;6298221;22;20410;-84
2022/12/04 03:34:30;;;;;;;56.97;31.15;;;-0.20;99.90;;;;;;6298334;22;20094;-84
2022/12/04 03:37:02;;;;;;;60.05;32.97;;;0.30;99.90;;;;;;6297187;22;20019;-84
2022/12/04 03:39:33;;;;;;;61.92;32.55;;;0.50;99.90;;;;;;6273575;22;20419;-85
2022/12/04 03:42:16;;;;;;;60.97;34.05;;;-0.20;99.90;;;;;;6297501;22;20019;-85
2022/12/04 03:44:52;;;;;;;66.10;35.33;;;0.80;99.90;;;;;;6297938;22;20122;-85
2022/12/04 03:47:28;;;;;;;63.20;33.35;;;0.30;99.90;;;;;;6297698;22;20518;-84
2022/12/04 03:50:03;;;;;;;61.33;34.38;;;-0.20;99.90;;;;;;6298830;22;20053;-84
2022/12/04 03:52:44;;;;;;;63.83;35.10;;;-0.20;99.90;;;;;;6324555;22;20011;-84
2022/12/04 03:55:21;;;;;;;59.85;33.00;;;-0.20;99.90;;;;;;6298551;22;20066;-84
2022/12/04 03:57:50;;;;;;;62.97;32.92;;;0.60;99.90;;;;;;6298242;22;20016;-84
2022/12/04 04:00:20;;;;;;;65.95;33.20;;;0.30;99.90;;;;;;6271839;22;20098;-84
2022/12/04 04:02:52;;;;;;;55.85;32.58;;;-0.20;99.90;;;;;;6297889;22;20030;-84
2022/12/04 04:05:19;;;;;;;60.45;34.22;;;0.50;99.90;;;;;;6298385;22;20114;-84
2022/12/04 04:07:52;;;;;;;60.38;32.85;;;-0.20;99.90;;;;;;6301097;22;20050;-84
2022/12/04 04:10:22;;;;;;;61.72;34.78;;;-0.40;99.90;;;;;;6300852;22;20019;-85
2022/12/04 04:24:24;;;;;;;65.10;35.08;;;-0.30;99.90;;;;;;6299714;22;20098;-84
2022/12/04 04:26:51;;;;;;;64.25;35.33;;;-0.30;99.90;;;;;;6299569;22;20448;-85
2022/12/04 04:29:17;;;;;;;64.90;34.47;;;-0.30;99.90;;;;;;6300540;22;20090;-84
2022/12/04 04:31:58;;;;;;;62.30;34.22;;;0.20;99.90;;;;;;6300946;22;20050;-84
2022/12/04 04:34:36;;;;;;;61.30;33.88;;;-0.10;99.90;;;;;;6299695;22;20027;-84
2022/12/04 04:37:24;;;;;;;66.55;34.92;;;-0.30;99.90;;;;;;6299726;22;20012;-84
2022/12/04 04:40:00;;;;;;;61.08;34.42;;;-0.30;99.90;;;;;;6300606;22;20023;-85
2022/12/04 04:42:32;;;;;;;63.88;33.90;;;0.60;99.90;;;;;;6274328;22;20141;-84
2022/12/04 04:45:00;;;;;;;60.92;34.05;;;0.60;99.90;;;;;;6299890;22;20053;-84
2022/12/04 04:47:46;;;;;;;61.50;34.35;;;-0.30;99.90;;;;;;6298910;22;20023;-84
2022/12/04 04:50:15;;;;;;;68.03;35.85;;;-0.30;99.90;;;;;;6274753;22;20011;-85
2022/12/04 04:52:44;;;;;;;64.57;34.90;;;0.40;99.90;;;;;;6299732;22;20019;-85
2022/12/04 04:55:12;;;;;;;61.97;34.90;;;-0.70;99.90;;;;;;6299186;22;20061;-84
2022/12/04 04:57:37;;;;;;;61.92;34.25;;;0.20;99.90;;;;;;6299738;22;20094;-84
2022/12/04 05:00:07;;;;;;;63.80;34.72;;;-0.30;99.90;;;;;;6300454;22;20464;-82
2022/12/04 05:02:33;;;;;;;63.30;34.35;;;-0.30;99.90;;;;;;6298729;22;20019;-81
2022/12/04 05:04:59;;;;;;;67.03;35.58;;;-0.10;99.90;;;;;;6300734;22;20031;-82
2022/12/04 05:07:24;;;;;;;62.70;35.00;;;-0.30;99.90;;;;;;6300272;22;20047;-82
2022/12/04 05:09:50;;;;;;;63.13;35.40;;;0.40;99.90;;;;;;6299744;22;20098;-82
2022/12/04 05:12:16;;;;;;;65.57;35.40;;;-0.30;99.90;;;;;;6300751;22;20584;-82
2022/12/04 05:14:41;;;;;;;61.03;34.63;;;-0.30;99.90;;;;;;6300310;22;20166;-82
2022/12/04 05:17:07;;;;;;;62.25;34.78;;;-0.20;99.90;;;;;;6297522;22;20026;-82
2022/12/04 05:19:52;;;;;;;67.20;34.65;;;-0.20;99.90;;;;;;6300356;22;20015;-82
2022/12/04 05:22:20;;;;;;;65.07;35.38;;;0.50;99.90;;;;;;6272643;22;20332;-82
2022/12/04 05:24:46;;;;;;;62.47;34.00;;;-0.20;99.90;;;;;;6300955;22;20019;-82
2022/12/04 05:27:12;;;;;;;63.95;33.97;;;-0.30;99.90;;;;;;6300171;22;20530;-82
2022/12/04 05:29:38;;;;;;;64.35;34.60;;;2.00;99.90;;;;;;6299999;22;20498;-82
2022/12/04 05:32:04;;;;;;;68.25;36.47;;;0.70;99.90;;;;;;6298656;22;20106;-82
2022/12/04 05:34:30;;;;;;;61.38;34.40;;;-0.20;99.90;;;;;;6299800;22;20019;-82
2022/12/04 05:36:56;;;;;;;65.53;35.47;;;-0.20;99.90;;;;;;6299052;22;20113;-82
2022/12/04 05:39:21;;;;;;;63.05;35.00;;;0.10;99.90;;;;;;6299602;22;20019;-82
2022/12/04 05:41:47;;;;;;;58.13;32.80;;;-0.20;99.90;;;;;;6300165;22;20098;-82
2022/12/04 05:44:13;;;;;;;62.92;34.53;;;0.30;99.90;;;;;;6298505;22;20427;-82
2022/12/04 05:46:38;;;;;;;57.65;33.25;;;-0.20;99.90;;;;;;6300173;22;20443;-82
2022/12/04 05:49:04;;;;;;;65.63;34.70;;;0.00;99.90;;;;;;6298934;22;20007;-84
2022/12/04 05:51:30;;;;;;;61.10;33.92;;;-0.10;99.90;;;;;;6298854;22;20015;-85
2022/12/04 05:53:55;;;;;;;58.22;33.88;;;-0.20;99.90;;;;;;6299904;22;20018;-84
2022/12/04 05:56:21;;;;;;;63.22;34.08;;;0.50;99.90;;;;;;6299677;22;20338;-84
2022/12/04 05:58:47;;;;;;;64.40;33.47;;;1.10;99.90;;;;;;6298248;22;20051;-84
2022/12/04 06:01:16;;;;;;;63.10;33.50;;;0.50;99.90;;;;;;6299596;22;20027;-84
2022/12/04 06:03:42;;;;;;;69.00;34.50;;;-0.10;99.90;;;;;;6298445;22;20439;-84
2022/12/04 06:06:13;;;;;;;67.03;35.33;;;-0.20;99.90;;;;;;6298146;22;20462;-85
2022/12/04 06:08:38;;;;;;;59.25;32.85;;;-0.10;99.90;;;;;;6299310;22;20011;-85
2022/12/04 06:11:21;;;;;;;60.38;33.60;;;0.60;99.90;;;;;;6299264;22;20015;-84
2022/12/04 06:13:47;;;;;;;68.38;35.20;;;0.20;99.90;;;;;;6298544;22;20457;-85
2022/12/04 06:16:15;;;;;;;62.92;34.90;;;0.20;99.90;;;;;;6299887;22;20102;-85
2022/12/04 06:18:41;;;;;;;62.05;34.97;;;-0.20;99.90;;;;;;6298217;22;20015;-85
2022/12/04 06:21:07;;;;;;;61.00;34.25;;;-0.10;99.90;;;;;;6299170;22;20098;-85
2022/12/04 06:23:33;;;;;;;62.20;34.35;;;0.00;99.90;;;;;;6299381;22;20098;-85
2022/12/04 06:26:04;;;;;;;65.60;34.45;;;0.00;99.90;;;;;;6298228;22;20077;-85
2022/12/04 06:28:30;;;;;;;66.53;34.65;;;0.00;99.90;;;;;;6298778;22;20023;-85
2022/12/04 06:31:00;;;;;;;65.00;34.15;;;0.00;99.90;;;;;;6299581;22;20011;-85
2022/12/04 06:33:26;;;;;;;63.55;34.05;;;-0.50;99.90;;;;;;6297255;22;20399;-85
2022/12/04 06:36:03;;;;;;;65.63;34.63;;;-0.10;99.90;;;;;;6299992;22;20043;-84
2022/12/04 06:38:30;;;;;;;64.97;34.38;;;0.10;99.90;;;;;;6299418;22;20026;-84
2022/12/04 06:40:56;;;;;;;66.63;34.65;;;0.00;99.90;;;;;;6272717;22;20343;-85
2022/12/04 06:43:23;;;;;;;64.38;33.40;;;0.10;99.90;;;;;;6298958;22;20023;-84
2022/12/04 06:45:57;;;;;;;61.30;33.33;;;0.20;99.90;;;;;;6299396;22;20081;-84
2022/12/04 06:48:23;;;;;;;61.85;33.90;;;0.30;99.90;;;;;;6297322;22;20501;-85
2022/12/04 06:50:48;;;;;;;67.00;34.58;;;1.30;99.90;;;;;;6299164;22;20023;-85
2022/12/04 06:53:14;;;;;;;62.38;34.50;;;-0.20;99.90;;;;;;6272723;22;20348;-85
2022/12/04 06:55:47;;;;;;;62.42;32.75;;;0.20;99.90;;;;;;6299157;22;20451;-85
2022/12/04 06:58:13;;;;;;;63.38;35.42;;;1.30;99.90;;;;;;6298673;22;20011;-84
2022/12/04 07:00:38;;;;;;;66.22;34.45;;;0.50;99.90;;;;;;6300033;22;20090;-84
2022/12/04 07:03:04;;;;;;;63.63;34.55;;;0.10;99.90;;;;;;6297687;22;20015;-85
2022/12/04 07:05:30;;;;;;;61.50;33.05;;;0.10;99.90;;;;;;6299202;22;20027;-85
2022/12/04 07:07:55;;;;;;;62.95;33.40;;;0.80;99.90;;;;;;6298374;22;20019;-85
2022/12/04 07:10:21;;;;;;;59.75;31.52;;;1.30;99.90;;;;;;6299051;22;20022;-84
2022/12/04 07:12:47;;;;;;;66.25;33.30;;;0.20;99.90;;;;;;6298910;22;20074;-84
2022/12/04 07:15:12;;;;;;;58.03;31.83;;;1.30;99.90;;;;;;6297845;22;20016;-83
2022/12/04 07:17:38;;;;;;;63.60;32.78;;;0.20;99.90;;;;;;6297626;22;20047;-84
2022/12/04 07:20:05;;;;;;;60.80;32.80;;;0.10;99.90;;;;;;6298503;22;20045;-85
2022/12/04 07:22:30;;;;;;;62.88;33.03;;;0.20;99.90;;;;;;6271620;22;20027;-84
2022/12/04 07:24:58;;;;;;;62.28;32.70;;;0.20;99.90;;;;;;6299237;22;20501;-84
2022/12/04 07:27:24;;;;;;;59.67;32.92;;;1.50;99.90;;;;;;6272929;22;20011;-84
2022/12/04 07:29:51;;;;;;;63.88;33.03;;;0.20;99.90;;;;;;6299972;22;20051;-85
2022/12/04 07:32:17;;;;;;;64.03;33.42;;;0.20;99.90;;;;;;6297961;22;20138;-85
2022/12/04 07:34:43;;;;;;;60.60;32.90;;;0.30;99.90;;;;;;6298919;22;20065;-84
2022/12/04 07:37:09;;;;;;;64.35;33.28;;;-0.40;99.90;;;;;;6271775;22;20085;-84
2022/12/04 07:39:34;;;;;;;58.05;32.42;;;0.60;99.90;;;;;;6299020;22;20102;-84
2022/12/04 07:42:00;;;;;;;59.20;32.50;;;0.80;99.90;;;;;;6300556;22;20374;-84
2022/12/04 07:44:26;;;;;;;60.15;33.47;;;0.30;99.90;;;;;;6298808;22;20505;-84
2022/12/04 07:46:51;;;;;;;54.90;31.65;;;0.30;99.90;;;;;;6272448;22;20016;-84
2022/12/04 07:49:17;;;;;;;62.28;32.90;;;1.10;99.90;;;;;;6298207;22;20363;-83
2022/12/04 07:51:43;;;;;;;59.53;33.00;;;0.40;99.90;;;;;;6298252;22;20050;-84
2022/12/04 07:54:08;;;;;;;59.92;31.85;;;0.30;99.90;;;;;;6272769;22;20022;-84
2022/12/04 07:56:34;;;;;;;63.05;32.97;;;0.50;99.90;;;;;;6299565;22;20098;-83
2022/12/04 07:59:00;;;;;;;57.22;30.95;;;0.30;99.90;;;;;;6296794;22;20019;-84
2022/12/04 08:01:26;;;;;;;59.05;32.17;;;0.30;99.90;;;;;;6299530;22;20053;-84
2022/12/04 08:03:55;;;;;;;58.72;31.70;;;0.30;99.90;;;;;;6297764;22;20015;-84
2022/12/04 08:06:23;;;;;;;58.63;31.67;;;1.20;99.90;;;;;;6297612;22;20027;-84
2022/12/04 08:08:49;;;;;;;66.50;33.78;;;0.90;99.90;;;;;;6298574;22;20432;-84
2022/12/04 08:11:20;;;;;;;63.05;31.33;;;0.40;99.90;;;;;;6297610;22;20016;-85
2022/12/04 08:13:45;;;;;;;55.28;30.80;;;0.50;99.90;;;;;;6325144;22;20085;-84
2022/12/04 08:16:13;;;;;;;63.10;32.28;;;1.60;99.90;;;;;;6298378;22;20015;-86
2022/12/04 08:18:40;;;;;;;61.25;32.50;;;0.10;99.90;;;;;;6297064;22;20030;-85
2022/12/04 08:21:13;;;;;;;58.10;32.75;;;1.70;99.90;;;;;;6297553;22;20023;-85
2022/12/04 08:23:40;;;;;;;57.60;32.85;;;0.50;99.90;;;;;;6299169;22;20027;-85
2022/12/04 08:26:07;;;;;;;59.40;32.40;;;0.90;99.90;;;;;;6293788;22;20015;-86
2022/12/04 08:28:41;;;;;;;60.53;31.70;;;0.60;99.90;;;;;;6299148;22;20015;-86
2022/12/04 08:31:11;;;;;;;59.97;31.77;;;0.50;99.90;;;;;;6298488;22;20440;-85
2022/12/04 08:33:38;;;;;;;56.63;31.25;;;0.60;99.90;;;;;;6296891;22;20019;-85
2022/12/04 08:36:08;;;;;;;58.38;32.03;;;0.20;99.90;;;;;;6298681;22;20030;-85
2022/12/04 08:38:37;;;;;;;57.75;32.35;;;0.70;99.90;;;;;;6298738;22;20456;-85
2022/12/04 08:41:05;;;;;;;58.33;32.45;;;0.60;99.90;;;;;;6297409;22;20021;-85
2022/12/04 08:43:33;;;;;;;56.45;31.75;;;0.70;99.90;;;;;;6299352;22;20019;-86
2022/12/04 08:46:04;;;;;;;55.20;30.85;;;0.70;99.90;;;;;;6298827;22;20027;-85
2022/12/04 08:48:30;;;;;;;56.53;31.35;;;0.80;99.90;;;;;;6295900;22;20027;-82
2022/12/04 08:50:57;;;;;;;53.00;29.33;;;0.80;99.90;;;;;;6299197;22;20447;-84
2022/12/04 08:53:24;;;;;;;53.05;30.70;;;0.80;99.90;;;;;;6300061;22;20097;-85
2022/12/04 08:55:50;;;;;;;52.35;29.23;;;0.70;99.90;;;;;;6300938;22;20023;-84
2022/12/04 08:58:17;;;;;;;57.60;30.20;;;1.70;99.90;;;;;;6300170;22;20121;-83
2022/12/04 09:00:43;;;;;;;55.90;29.38;;;0.80;99.90;;;;;;6301589;22;20090;-84
2022/12/04 09:03:15;;;;;;;52.05;29.38;;;0.90;99.90;;;;;;6300347;22;20487;-84
2022/12/04 09:05:44;;;;;;;50.80;29.23;;;0.90;99.90;;;;;;6300629;22;20347;-83
2022/12/04 09:08:11;;;;;;;50.20;29.52;;;1.30;99.90;;;;;;6299731;22;20030;-85
2022/12/04 09:10:37;;;;;;;52.53;28.95;;;1.40;99.90;;;;;;6301171;22;20351;-85
2022/12/04 09:13:03;;;;;;;50.72;29.08;;;0.90;99.90;;;;;;6300013;22;20018;-84
2022/12/04 09:15:32;;;;;;;48.83;28.40;;;1.00;99.90;;;;;;6299810;22;20019;-85
2022/12/04 09:17:57;;;;;;;47.90;27.90;;;1.10;99.90;;;;;;6299292;22;20023;-85
2022/12/04 09:20:23;;;;;;;49.22;29.23;;;0.40;99.90;;;;;;6301013;22;20018;-85
2022/12/04 09:22:54;;;;;;;49.65;27.67;;;1.30;99.90;;;;;;6298819;22;20056;-85
2022/12/04 09:25:20;;;;;;;47.20;27.23;;;1.20;99.90;;;;;;6274701;22;20019;-84
2022/12/04 09:27:46;;;;;;;47.80;27.13;;;1.20;99.90;;;;;;6299764;22;20038;-85
2022/12/04 09:30:12;;;;;;;47.13;26.83;;;1.20;99.90;;;;;;6299457;22;20023;-85
2022/12/04 09:32:38;;;;;;;43.95;25.77;;;1.40;99.90;;;;;;6299390;22;20477;-84
2022/12/04 09:35:05;;;;;;;46.65;27.05;;;1.30;99.90;;;;;;6299538;22;20027;-83
2022/12/04 09:37:32;;;;;;;42.15;26.33;;;1.30;99.90;;;;;;6298914;22;20022;-83
2022/12/04 09:39:58;;;;;;;41.20;24.98;;;1.30;99.90;;;;;;6299598;22;20019;-82
2022/12/04 09:42:39;;;;;;;36.92;23.52;;;1.60;99.90;;;;;;6299906;22;20033;-83
2022/12/04 09:45:14;;;;;;;41.13;25.75;;;1.50;99.90;;;;;;6273266;22;20114;-82
2022/12/04 09:47:45;;;;;;;38.85;23.38;;;1.50;99.90;;;;;;6298869;22;20019;-83
2022/12/04 09:50:23;;;;;;;39.08;24.20;;;1.50;99.90;;;;;;6298373;22;20042;-82
2022/12/04 09:52:57;;;;;;;40.42;23.73;;;1.60;99.90;;;;;;6298893;22;20065;-82
2022/12/04 09:55:30;;;;;;;40.05;23.25;;;1.70;99.90;;;;;;6299581;22;20011;-82
2022/12/04 09:58:00;;;;;;;44.65;23.92;;;1.70;99.90;;;;;;6300160;22;20023;-83
2022/12/04 10:00:28;;;;;;;44.13;24.95;;;1.70;99.90;;;;;;6300285;22;20015;-83
2022/12/04 10:03:04;;;;;;;41.10;24.80;;;1.70;99.90;;;;;;6324299;22;20069;-83
2022/12/04 10:05:43;;;;;;;40.22;25.08;;;1.70;99.90;;;;;;6298409;22;20438;-83
2022/12/04 10:08:16;;;;;;;41.80;23.88;;;1.70;99.90;;;;;;6298881;22;20019;-82
2022/12/04 10:10:53;;;;;;;39.20;23.23;;;2.90;99.90;;;;;;6272694;22;20464;-83
2022/12/04 10:13:46;;;;;;;41.17;23.55;;;1.80;99.90;;;;;;6299230;22;20261;-83
2022/12/04 10:16:21;;;;;;;39.65;23.02;;;2.70;99.90;;;;;;6299486;22;20027;-83
2022/12/04 10:19:15;;;;;;;39.47;22.58;;;1.80;99.90;;;;;;6323134;22;20324;-82
2022/12/04 10:21:50;;;;;;;35.85;22.95;;;1.80;99.90;;;;;;6299179;22;20074;-85
2022/12/04 10:24:35;;;;;;;40.08;21.83;;;1.80;99.90;;;;;;6299351;22;20030;-84
2022/12/04 10:27:08;;;;;;;40.28;23.15;;;1.80;99.90;;;;;;6298581;22;20497;-81
2022/12/04 10:29:36;;;;;;;40.17;22.55;;;1.90;99.90;;;;;;6300056;22;20019;-84
2022/12/04 10:32:20;;;;;;;37.17;21.80;;;1.90;99.90;;;;;;6297188;22;20312;-85
2022/12/04 10:34:49;;;;;;;41.38;22.55;;;1.90;99.90;;;;;;6299114;22;20041;-85
2022/12/04 10:37:15;;;;;;;38.17;21.63;;;1.80;99.90;;;;;;6299423;22;20480;-82
2022/12/04 10:39:49;;;;;;;38.65;21.38;;;1.80;99.90;;;;;;6298353;22;20057;-86
2022/12/04 10:42:30;;;;;;;35.45;20.67;;;2.00;99.90;;;;;;6299222;22;20054;-83
2022/12/04 10:44:56;;;;;;;30.92;19.70;;;2.20;99.90;;;;;;6325146;22;20030;-85
2022/12/04 10:47:23;;;;;;;34.50;20.20;;;2.00;99.90;;;;;;6296564;22;20453;-84
2022/12/04 10:49:58;;;;;;;32.60;19.48;;;2.10;99.90;;;;;;6299351;22;20022;-83
2022/12/04 10:52:24;;;;;;;32.15;18.65;;;2.00;99.90;;;;;;6298600;22;20528;-85
2022/12/04 10:55:00;;;;;;;29.13;18.92;;;2.10;99.90;;;;;;6298018;22;20484;-82
2022/12/04 10:57:44;;;;;;;30.45;19.05;;;2.10;99.90;;;;;;6299171;22;20019;-83
2022/12/04 11:00:32;;;;;;;30.98;18.23;;;2.10;99.90;;;;;;6298285;22;20030;-84
2022/12/04 11:03:01;;;;;;;30.55;17.55;;;2.20;99.90;;;;;;6297851;22;20061;-83
2022/12/04 11:05:31;;;;;;;29.83;17.73;;;1.70;99.90;;;;;;6298738;22;20015;-83
2022/12/04 11:07:59;;;;;;;27.00;16.98;;;2.90;99.90;;;;;;6297250;22;20455;-83
2022/12/04 11:10:43;;;;;;;28.00;16.60;;;2.50;99.90;;;;;;6298931;22;20073;-86
2022/12/04 11:13:10;;;;;;;29.60;16.63;;;2.20;99.90;;;;;;6298484;22;20019;-81
2022/12/04 11:15:44;;;;;;;24.20;15.13;;;2.70;99.90;;;;;;6298761;22;20056;-81
2022/12/04 11:18:19;;;;;;;27.02;16.33;;;2.20;99.90;;;;;;6323671;22;20084;-81
2022/12/04 11:20:57;;;;;;;26.02;15.73;;;2.60;99.90;;;;;;6300075;22;20113;-81
2022/12/04 11:23:23;;;;;;;27.33;15.32;;;2.20;99.90;;;;;;6300009;22;20057;-81
2022/12/04 11:25:52;;;;;;;24.17;15.40;;;2.20;99.90;;;;;;6298637;22;20019;-82
2022/12/04 11:28:22;;;;;;;26.10;16.00;;;2.20;99.90;;;;;;6297039;22;20022;-81
2022/12/04 11:30:51;;;;;;;25.20;16.00;;;2.20;99.90;;;;;;6324950;22;20413;-81
2022/12/04 11:33:31;;;;;;;25.80;15.52;;;2.20;99.90;;;;;;6297397;22;20413;-81
2022/12/04 11:36:01;;;;;;;25.08;15.48;;;2.20;99.90;;;;;;6299672;22;20019;-80
2022/12/04 11:38:29;;;;;;;28.13;16.63;;;3.00;99.90;;;;;;6299326;22;20022;-80
2022/12/04 11:40:57;;;;;;;26.52;16.77;;;2.20;99.90;;;;;;6298785;22;20026;-81
2022/12/04 11:43:28;;;;;;;27.00;16.80;;;2.20;99.90;;;;;;6297881;22;20085;-80
2022/12/04 11:46:00;;;;;;;28.08;17.35;;;2.70;99.90;;;;;;6298074;22;20027;-80
2022/12/04 11:48:29;;;;;;;29.10;16.63;;;2.20;99.90;;;;;;6298429;22;20090;-80
2022/12/04 11:51:05;;;;;;;27.88;16.73;;;2.20;99.90;;;;;;6323679;22;20011;-80
2022/12/04 11:53:46;;;;;;;25.20;16.13;;;2.20;99.90;;;;;;6300911;22;20037;-80
2022/12/04 11:56:37;;;;;;;26.80;17.63;;;2.10;99.90;;;;;;6297432;22;20019;-80
2022/12/04 11:59:24;;;;;;;26.35;16.45;;;2.10;99.90;;;;;;6299432;22;20019;-80
2022/12/04 12:02:07;;;;;;;31.50;17.33;;;2.20;99.90;;;;;;6298596;22;20501;-80
2022/12/04 12:04:52;;;;;;;27.80;16.88;;;2.20;99.90;;;;;;6298235;22;20012;-80
2022/12/04 12:07:31;;;;;;;25.52;15.57;;;2.20;99.90;;;;;;6324925;22;20023;-80
2022/12/04 12:10:12;;;;;;;25.67;16.40;;;2.20;99.90;;;;;;6298457;22;20019;-80
2022/12/04 12:12:45;;;;;;;25.50;15.30;;;2.30;99.90;;;;;;6298459;22;20019;-80
2022/12/04 12:15:24;;;;;;;25.10;15.63;;;2.20;99.90;;;;;;6298228;22;20027;-80
2022/12/04 12:18:13;;;;;;;27.80;17.23;;;2.30;99.90;;;;;;6296229;22;20415;-80
2022/12/04 12:20:52;;;;;;;27.90;17.85;;;2.30;99.90;;;;;;6300450;22;20016;-80
2022/12/04 12:23:18;;;;;;;27.92;16.65;;;2.30;99.90;;;;;;6297862;22;20031;-80
2022/12/04 12:26:02;;;;;;;29.85;18.15;;;2.30;99.90;;;;;;6298254;22;20019;-80
2022/12/04 12:28:53;;;;;;;28.67;17.27;;;2.30;99.90;;;;;;6300949;22;20023;-80
2022/12/04 12:31:40;;;;;;;27.88;17.52;;;2.30;99.90;;;;;;6274010;22;20023;-80
2022/12/04 12:34:29;;;;;;;28.77;16.95;;;2.30;99.90;;;;;;6301211;22;20335;-80
2022/12/04 12:36:58;;;;;;;29.48;17.73;;;2.30;99.90;;;;;;6300559;22;20011;-80
2022/12/04 12:39:32;;;;;;;28.60;17.77;;;2.20;99.90;;;;;;6301873;22;20170;-79
2022/12/04 12:42:00;;;;;;;27.17;16.30;;;2.30;99.90;;;;;;6300132;22;20023;-79
2022/12/04 12:44:40;;;;;;;26.52;17.42;;;2.30;99.90;;;;;;6300115;22;20022;-79
2022/12/04 12:47:15;;;;;;;28.63;17.42;;;3.30;99.90;;;;;;6299337;22;20019;-79
2022/12/04 12:49:46;;;;;;;26.38;17.05;;;2.30;99.90;;;;;;6300644;22;20120;-79
2022/12/04 12:52:26;;;;;;;27.75;16.33;;;2.30;99.90;;;;;;6300277;22;20022;-79
2022/12/04 12:55:16;;;;;;;29.13;17.30;;;2.30;99.90;;;;;;6299970;22;20019;-79
2022/12/04 12:57:46;;;;;;;27.45;16.42;;;2.30;99.90;;;;;;6300214;22;20069;-79
2022/12/04 13:00:19;;;;;;;27.83;16.88;;;2.30;99.90;;;;;;6300827;22;20007;-79
2022/12/04 13:02:52;;;;;;;25.20;16.40;;;2.30;99.90;;;;;;6299051;22;20145;-79